Time;durP1;ratioP1;P1;durP2;ratioP2;P2;SDS_P1;SDS_P2;PMS_P1;PMS_P2;Temp;Humidity;BMP_temperature;BMP_pressure;BME280_temperature;BME280_humidity;BME280_pressure;Samples;Min_cycle;Max_cycle;Signal;HPM_P1;HPM_P2
2022/09/09 00:00:15;;;;;;;38.05;6.28;;;17.30;73.60;;;;;;5115076;28;20027;-67
2022/09/09 00:03:08;;;;;;;16.40;4.20;;;17.30;73.60;;;;;;5114997;28;20031;-67
2022/09/09 00:05:53;;;;;;;21.00;3.90;;;17.30;73.50;;;;;;5103821;28;20067;-67
2022/09/09 00:08:24;;;;;;;18.98;3.17;;;17.30;73.30;;;;;;5115060;28;20164;-67
2022/09/09 00:10:58;;;;;;;3.90;2.65;;;17.30;73.00;;;;;;5114420;28;20016;-67
2022/09/09 00:13:33;;;;;;;;;;;17.30;73.20;;;;;;5115074;28;20019;-67
2022/09/09 00:16:28;;;;;;;4.15;2.40;;;17.30;72.50;;;;;;5114768;28;20043;-67
2022/09/09 00:19:22;;;;;;;3.33;2.17;;;17.30;72.00;;;;;;5114941;28;20034;-67
2022/09/09 00:21:57;;;;;;;2.58;2.20;;;17.20;71.90;;;;;;5114789;28;20115;-67
2022/09/09 00:24:44;;;;;;;4.70;2.72;;;17.20;71.80;;;;;;5114259;28;20034;-67
2022/09/09 00:27:42;;;;;;;6.55;2.40;;;17.20;71.90;;;;;;5114722;28;20103;-67
2022/09/09 00:30:23;;;;;;;3.17;2.70;;;17.10;71.90;;;;;;5031861;28;20095;-67
2022/09/09 00:33:15;;;;;;;4.03;2.53;;;17.00;71.80;;;;;;5031892;28;20528;-67
2022/09/09 00:35:50;;;;;;;11.77;4.53;;;17.00;72.00;;;;;;5044198;28;20029;-67
2022/09/09 00:38:33;;;;;;;9.27;3.85;;;17.00;72.40;;;;;;5015260;28;20108;-67
2022/09/09 00:41:31;;;;;;;13.68;3.58;;;17.00;72.70;;;;;;5031788;28;20516;-67
2022/09/09 00:44:03;;;;;;;8.82;3.65;;;17.00;72.60;;;;;;5024694;28;20041;-67
2022/09/09 00:47:04;;;;;;;12.40;4.65;;;17.00;72.40;;;;;;5015051;28;20116;-67
2022/09/09 00:50:03;;;;;;;12.65;4.00;;;16.90;72.60;;;;;;5031671;28;20399;-68
2022/09/09 00:52:57;;;;;;;9.23;3.30;;;16.90;72.50;;;;;;5031582;28;20034;-68
2022/09/09 00:55:29;;;;;;;13.50;3.25;;;16.90;72.30;;;;;;5014990;28;20061;-68
2022/09/09 00:57:55;;;;;;;13.85;3.88;;;16.90;72.10;;;;;;5031427;28;20112;-68
2022/09/09 01:00:31;;;;;;;8.02;3.42;;;16.80;72.10;;;;;;5049986;28;20638;-68
2022/09/09 01:03:21;;;;;;;6.88;3.08;;;16.80;72.20;;;;;;5050493;28;20144;-68
2022/09/09 01:05:51;;;;;;;17.13;3.42;;;16.80;72.30;;;;;;5084248;28;20124;-68
2022/09/09 01:08:42;;;;;;;13.30;4.32;;;16.80;72.30;;;;;;5113819;28;20474;-68
2022/09/09 01:11:32;;;;;;;16.42;4.53;;;16.80;72.50;;;;;;5113718;28;20026;-67
2022/09/09 01:14:17;;;;;;;10.48;3.53;;;16.70;72.60;;;;;;5113697;28;20019;-68
2022/09/09 01:16:44;;;;;;;8.35;3.13;;;16.70;72.70;;;;;;5113609;28;20015;-67
2022/09/09 01:19:18;;;;;;;8.57;3.05;;;16.70;72.60;;;;;;5113545;28;20385;-67
2022/09/09 01:22:22;;;;;;;9.32;3.08;;;16.70;72.60;;;;;;5113518;28;20031;-68
2022/09/09 01:24:56;;;;;;;10.60;3.20;;;16.80;72.60;;;;;;5111405;28;20024;-68
2022/09/09 01:27:23;;;;;;;;;;;16.70;72.30;;;;;;5113928;28;20015;-67
2022/09/09 01:29:49;;;;;;;5.10;2.05;;;16.70;72.20;;;;;;5113431;28;20274;-68
2022/09/09 01:32:44;;;;;;;4.53;2.03;;;16.70;71.90;;;;;;5109285;28;20038;-67
2022/09/09 01:35:19;;;;;;;5.95;2.28;;;16.70;72.10;;;;;;5113301;28;20023;-68
2022/09/09 01:37:45;;;;;;;5.68;1.80;;;16.60;72.00;;;;;;5113396;28;20126;-68
2022/09/09 01:40:10;;;;;;;4.55;2.45;;;16.60;72.10;;;;;;5113572;28;20094;-68
2022/09/09 01:42:36;;;;;;;3.20;2.03;;;16.60;72.20;;;;;;5113240;28;20425;-68
2022/09/09 01:45:04;;;;;;;2.03;1.63;;;16.60;72.40;;;;;;5113166;28;20027;-68
2022/09/09 01:47:29;;;;;;;3.30;1.88;;;16.50;72.40;;;;;;5113141;28;20043;-68
2022/09/09 01:49:55;;;;;;;2.95;1.73;;;16.60;72.50;;;;;;5113167;28;20100;-67
2022/09/09 01:52:24;;;;;;;3.33;1.75;;;16.50;72.50;;;;;;5113096;28;20522;-67
2022/09/09 01:54:50;;;;;;;3.20;1.58;;;16.50;72.50;;;;;;5113050;28;20478;-68
2022/09/09 01:57:38;;;;;;;2.90;1.80;;;16.50;72.40;;;;;;5112988;28;20098;-67
2022/09/09 02:00:09;;;;;;;2.67;1.70;;;16.50;72.40;;;;;;5113012;28;20020;-68
2022/09/09 02:02:53;;;;;;;1.88;1.67;;;16.50;72.30;;;;;;5094689;28;20031;-68
2022/09/09 02:05:39;;;;;;;6.00;1.52;;;16.40;72.40;;;;;;5112939;28;20024;-68
2022/09/09 02:08:11;;;;;;;3.15;1.95;;;16.50;72.40;;;;;;5113021;28;20055;-67
2022/09/09 02:10:37;;;;;;;2.90;1.65;;;16.40;72.40;;;;;;5133646;28;20023;-68
2022/09/09 02:13:17;;;;;;;3.83;2.17;;;16.40;72.40;;;;;;5132476;28;20378;-67
2022/09/09 02:16:07;;;;;;;7.18;1.77;;;16.40;72.60;;;;;;5133370;28;20027;-67
2022/09/09 02:18:40;;;;;;;3.28;1.90;;;16.40;72.60;;;;;;5133399;28;20208;-68
2022/09/09 02:21:07;;;;;;;2.47;1.60;;;16.40;72.60;;;;;;5133347;28;20470;-67
2022/09/09 02:23:35;;;;;;;5.63;1.90;;;16.40;72.60;;;;;;5133341;28;20030;-67
2022/09/09 02:26:03;;;;;;;2.47;1.85;;;16.40;72.60;;;;;;5114837;28;20038;-67
2022/09/09 02:28:32;;;;;;;12.07;2.65;;;16.40;72.60;;;;;;5114794;28;20390;-67
2022/09/09 02:30:58;;;;;;;4.25;2.25;;;16.40;72.60;;;;;;5133130;28;20018;-67
2022/09/09 02:33:36;;;;;;;4.63;2.22;;;16.30;72.60;;;;;;5132835;28;20512;-67
2022/09/09 02:36:06;;;;;;;5.55;2.40;;;16.30;72.60;;;;;;5133248;28;20031;-68
2022/09/09 02:38:37;;;;;;;11.15;1.92;;;16.40;72.60;;;;;;5112536;28;20473;-67
2022/09/09 02:41:03;;;;;;;3.83;2.00;;;16.30;72.60;;;;;;5112624;28;20035;-68
2022/09/09 02:43:33;;;;;;;3.80;2.03;;;16.40;72.60;;;;;;5112615;28;20020;-67
2022/09/09 02:46:02;;;;;;;3.20;1.70;;;16.30;72.70;;;;;;5113461;28;20471;-67
2022/09/09 02:48:36;;;;;;;2.65;2.03;;;16.30;72.50;;;;;;5098316;28;20027;-67
2022/09/09 02:51:22;;;;;;;3.72;2.10;;;16.30;72.50;;;;;;5116475;28;20077;-67
2022/09/09 02:53:54;;;;;;;4.68;1.83;;;16.30;72.50;;;;;;5116344;28;20073;-67
2022/09/09 02:56:23;;;;;;;4.20;2.45;;;16.20;72.50;;;;;;5116197;28;20083;-67
2022/09/09 02:58:51;;;;;;;4.97;3.08;;;16.20;72.50;;;;;;5116290;28;20028;-68
2022/09/09 03:01:17;;;;;;;3.17;2.33;;;16.20;72.50;;;;;;5116294;28;20527;-68
2022/09/09 03:03:44;;;;;;;2.83;2.05;;;16.20;72.50;;;;;;5116122;28;20470;-68
2022/09/09 03:06:11;;;;;;;4.82;2.10;;;16.20;72.60;;;;;;5116065;28;20061;-68
2022/09/09 03:08:37;;;;;;;4.50;1.77;;;16.10;72.50;;;;;;5097732;27;20026;-68
2022/09/09 03:11:04;;;;;;;4.63;1.80;;;16.10;72.50;;;;;;5120210;27;20015;-68
2022/09/09 03:13:30;;;;;;;3.63;1.80;;;16.10;72.60;;;;;;5136826;27;20043;-67
2022/09/09 03:15:55;;;;;;;4.15;1.92;;;16.20;72.70;;;;;;5136522;27;20058;-67
2022/09/09 03:18:21;;;;;;;11.73;3.55;;;16.10;72.80;;;;;;5136390;27;20020;-67
2022/09/09 03:20:48;;;;;;;12.55;4.72;;;16.10;73.50;;;;;;5136417;27;20027;-68
2022/09/09 03:23:14;;;;;;;9.32;5.03;;;16.10;74.20;;;;;;5136335;27;20019;-68
2022/09/09 03:25:46;;;;;;;17.30;6.18;;;16.10;74.50;;;;;;5136052;27;20031;-68
2022/09/09 03:28:12;;;;;;;13.52;8.15;;;16.20;74.80;;;;;;5136319;27;20060;-67
2022/09/09 03:30:38;;;;;;;15.27;8.23;;;16.20;75.00;;;;;;5136223;27;20058;-67
2022/09/09 03:33:04;;;;;;;22.38;8.90;;;16.20;75.00;;;;;;5135829;27;20115;-67
2022/09/09 03:35:29;;;;;;;16.55;8.38;;;16.30;75.10;;;;;;5135916;27;20386;-67
2022/09/09 03:37:55;;;;;;;14.75;8.30;;;16.30;75.10;;;;;;5136115;27;20023;-67
2022/09/09 03:40:22;;;;;;;17.27;8.65;;;16.30;75.00;;;;;;5118898;27;20026;-68
2022/09/09 03:42:48;;;;;;;20.83;9.18;;;16.30;75.00;;;;;;5115408;28;20035;-67
2022/09/09 03:45:14;;;;;;;22.10;8.70;;;16.40;75.00;;;;;;5115375;28;20028;-67
2022/09/09 03:47:40;;;;;;;11.95;7.60;;;16.40;75.10;;;;;;5115310;28;20098;-68
2022/09/09 03:50:09;;;;;;;11.68;6.35;;;16.50;75.20;;;;;;5115335;28;20037;-68
2022/09/09 03:52:40;;;;;;;9.32;5.68;;;16.50;75.00;;;;;;5115204;28;20027;-68
2022/09/09 03:55:07;;;;;;;9.52;6.68;;;16.50;74.80;;;;;;5115056;28;20019;-68
2022/09/09 03:57:34;;;;;;;11.40;7.13;;;16.60;74.60;;;;;;5114016;28;20509;-68
2022/09/09 04:00:05;;;;;;;18.50;6.65;;;16.60;74.40;;;;;;5096830;28;20139;-68
2022/09/09 04:02:31;;;;;;;12.75;7.75;;;16.60;74.30;;;;;;5115134;28;20031;-68
2022/09/09 04:04:56;;;;;;;13.07;7.63;;;16.60;74.10;;;;;;5114965;28;20024;-68
2022/09/09 04:07:22;;;;;;;11.23;8.27;;;16.70;74.20;;;;;;5114963;28;20401;-68
2022/09/09 04:09:48;;;;;;;13.30;9.18;;;16.70;74.20;;;;;;5116019;27;20023;-68
2022/09/09 04:12:14;;;;;;;12.80;8.35;;;16.70;74.10;;;;;;5117974;27;20113;-68
2022/09/09 04:14:39;;;;;;;13.25;6.85;;;16.70;73.90;;;;;;5115810;27;20047;-68
2022/09/09 04:17:06;;;;;;;12.52;8.13;;;16.70;73.80;;;;;;5115545;27;20540;-68
2022/09/09 04:19:32;;;;;;;10.15;6.60;;;16.70;73.70;;;;;;5127624;27;20027;-68
2022/09/09 04:21:59;;;;;;;9.05;6.20;;;16.70;73.70;;;;;;5121796;27;20383;-67
2022/09/09 04:24:27;;;;;;;10.13;6.68;;;16.70;73.60;;;;;;5115827;27;20020;-68
2022/09/09 04:26:53;;;;;;;8.38;6.15;;;16.70;73.50;;;;;;5126844;27;20019;-68
2022/09/09 04:29:18;;;;;;;10.85;7.07;;;16.70;73.50;;;;;;5115508;27;20561;-67
2022/09/09 04:31:44;;;;;;;13.65;8.55;;;16.70;73.50;;;;;;5114453;27;20031;-68
2022/09/09 04:34:10;;;;;;;14.88;8.60;;;16.80;73.70;;;;;;5114475;28;20026;-68
2022/09/09 04:36:36;;;;;;;13.63;9.18;;;16.80;73.80;;;;;;5114572;28;20216;-67
2022/09/09 04:39:02;;;;;;;10.82;7.57;;;16.80;73.90;;;;;;5114210;27;20028;-68
2022/09/09 04:41:28;;;;;;;9.73;7.50;;;16.80;74.00;;;;;;5114200;28;20032;-68
2022/09/09 04:43:54;;;;;;;10.15;7.00;;;16.80;73.90;;;;;;5095786;28;20469;-68
2022/09/09 04:46:22;;;;;;;12.73;7.97;;;16.80;73.80;;;;;;5114252;28;20031;-68
2022/09/09 04:48:49;;;;;;;11.82;7.63;;;16.90;73.70;;;;;;5113984;28;20029;-68
2022/09/09 04:51:15;;;;;;;15.45;8.88;;;16.90;73.70;;;;;;5113963;28;20016;-68
2022/09/09 04:53:41;;;;;;;13.65;8.90;;;16.90;73.70;;;;;;5113885;28;20095;-68
2022/09/09 04:56:13;;;;;;;13.10;7.93;;;17.00;73.70;;;;;;5129863;27;20098;-68
2022/09/09 04:58:42;;;;;;;11.80;7.43;;;17.00;73.60;;;;;;5134095;27;20597;-68
2022/09/09 05:01:21;;;;;;;9.02;6.63;;;17.00;73.60;;;;;;5134408;27;20110;-68
2022/09/09 05:03:47;;;;;;;10.20;7.18;;;17.00;73.50;;;;;;5099314;28;20057;-68
2022/09/09 05:06:18;;;;;;;9.18;6.20;;;17.10;73.50;;;;;;5113636;28;20023;-68
2022/09/09 05:08:45;;;;;;;9.93;7.03;;;17.10;73.60;;;;;;5113350;27;20020;-68
2022/09/09 05:11:31;;;;;;;13.25;7.47;;;17.10;73.70;;;;;;5128017;27;20011;-68
2022/09/09 05:13:58;;;;;;;10.18;6.63;;;17.10;73.60;;;;;;5133829;27;20107;-68
2022/09/09 05:16:24;;;;;;;10.02;5.20;;;17.20;73.50;;;;;;5132790;27;20102;-68
2022/09/09 05:18:53;;;;;;;9.68;5.50;;;17.20;73.60;;;;;;5113513;28;20539;-68
2022/09/09 05:21:21;;;;;;;9.45;5.90;;;17.30;73.70;;;;;;5095254;28;20375;-67
2022/09/09 05:23:47;;;;;;;10.35;5.18;;;17.30;73.50;;;;;;5113142;27;20062;-68
2022/09/09 05:26:16;;;;;;;10.80;4.28;;;17.40;73.10;;;;;;5123180;27;20074;-68
2022/09/09 05:28:42;;;;;;;7.00;4.25;;;17.40;73.10;;;;;;5133854;27;20027;-68
2022/09/09 05:31:12;;;;;;;8.77;5.03;;;17.50;73.50;;;;;;5131975;27;20024;-68
2022/09/09 05:33:40;;;;;;;10.10;6.43;;;17.60;73.90;;;;;;5133617;27;20043;-68
2022/09/09 05:36:13;;;;;;;14.52;8.98;;;17.70;74.10;;;;;;5133712;27;20026;-68
2022/09/09 05:38:39;;;;;;;13.25;8.30;;;17.80;73.70;;;;;;5132648;27;20102;-67
2022/09/09 05:41:05;;;;;;;14.95;10.57;;;17.90;73.60;;;;;;5113091;27;20019;-68
2022/09/09 05:43:32;;;;;;;16.35;9.30;;;18.00;73.10;;;;;;5113123;28;20600;-68
2022/09/09 05:46:08;;;;;;;16.27;8.57;;;18.10;72.60;;;;;;5112932;28;20023;-67
2022/09/09 05:48:39;;;;;;;12.02;7.93;;;18.20;72.70;;;;;;5094788;28;20035;-68
2022/09/09 05:51:07;;;;;;;13.25;7.75;;;18.30;72.60;;;;;;5112962;28;20050;-68
2022/09/09 05:53:36;;;;;;;13.13;7.55;;;18.40;72.30;;;;;;5094981;28;20068;-70
2022/09/09 05:56:04;;;;;;;18.33;7.07;;;18.50;72.20;;;;;;5125013;27;20042;-70
2022/09/09 05:58:34;;;;;;;11.43;8.02;;;18.60;72.00;;;;;;5097359;28;20080;-70
2022/09/09 06:01:04;;;;;;;11.18;7.35;;;18.70;72.00;;;;;;5123816;27;20027;-70
2022/09/09 06:03:31;;;;;;;16.45;8.10;;;18.80;72.10;;;;;;5132398;27;20121;-71
2022/09/09 06:05:59;;;;;;;15.68;9.07;;;18.90;71.70;;;;;;5120598;28;20618;-70
2022/09/09 06:08:25;;;;;;;12.30;8.27;;;19.00;71.40;;;;;;5132728;28;20469;-71
2022/09/09 06:10:52;;;;;;;15.98;7.88;;;19.10;71.30;;;;;;5118424;28;20015;-71
2022/09/09 06:13:18;;;;;;;7.72;5.50;;;19.20;71.20;;;;;;5123454;28;20024;-73
2022/09/09 06:15:51;;;;;;;8.13;5.28;;;19.30;71.10;;;;;;5101952;28;20042;-70
2022/09/09 06:18:18;;;;;;;11.35;5.30;;;19.40;70.90;;;;;;5133318;28;20027;-71
2022/09/09 06:21:00;;;;;;;12.63;6.00;;;19.50;70.80;;;;;;5132352;27;20038;-71
2022/09/09 06:23:28;;;;;;;9.77;6.25;;;19.60;70.50;;;;;;5137685;27;20020;-70
2022/09/09 06:26:13;;;;;;;12.77;5.57;;;19.80;70.10;;;;;;5137595;27;20094;-71
2022/09/09 06:28:38;;;;;;;15.45;6.47;;;20.00;69.50;;;;;;5120255;27;20052;-70
2022/09/09 06:31:09;;;;;;;11.63;6.40;;;20.10;69.10;;;;;;5116467;28;20462;-70
2022/09/09 06:33:39;;;;;;;11.45;5.68;;;20.20;68.80;;;;;;5116695;28;20044;-70
2022/09/09 06:36:05;;;;;;;8.55;5.47;;;20.30;68.00;;;;;;5116442;28;20030;-70
2022/09/09 06:38:31;;;;;;;12.38;5.78;;;20.40;67.20;;;;;;5116460;28;20044;-70
2022/09/09 06:40:58;;;;;;;9.77;6.68;;;20.50;67.10;;;;;;5116692;27;20035;-70
2022/09/09 06:43:25;;;;;;;11.35;6.55;;;20.50;66.70;;;;;;5116682;28;20049;-70
2022/09/09 06:45:59;;;;;;;17.80;6.75;;;20.60;66.40;;;;;;5116619;28;20064;-71
2022/09/09 06:48:27;;;;;;;16.58;6.45;;;20.60;65.60;;;;;;5116630;28;20538;-70
2022/09/09 06:51:12;;;;;;;10.70;6.03;;;20.60;66.10;;;;;;5098236;28;20028;-70
2022/09/09 06:53:39;;;;;;;11.68;5.75;;;20.60;64.90;;;;;;5116495;28;20016;-70
2022/09/09 06:56:11;;;;;;;12.00;5.88;;;20.70;65.00;;;;;;5097892;28;20027;-70
2022/09/09 06:58:42;;;;;;;11.23;6.15;;;20.70;65.10;;;;;;5097938;28;20036;-70
2022/09/09 07:01:10;;;;;;;12.00;7.30;;;20.70;64.80;;;;;;5116406;28;20498;-71
2022/09/09 07:03:35;;;;;;;10.93;6.70;;;20.70;64.60;;;;;;5098068;28;20092;-70
2022/09/09 07:06:01;;;;;;;15.63;7.63;;;20.70;64.90;;;;;;5116200;28;20024;-71
2022/09/09 07:08:28;;;;;;;12.70;6.68;;;20.80;65.10;;;;;;5116275;28;20023;-70
2022/09/09 07:10:53;;;;;;;11.82;6.47;;;20.80;64.60;;;;;;5116109;27;20421;-71
2022/09/09 07:13:25;;;;;;;14.55;7.07;;;20.80;64.40;;;;;;5097864;28;20024;-70
2022/09/09 07:15:52;;;;;;;12.70;6.00;;;20.80;63.80;;;;;;5097853;28;20020;-70
2022/09/09 07:18:19;;;;;;;13.25;6.43;;;20.90;65.20;;;;;;5116029;28;20024;-71
2022/09/09 07:20:54;;;;;;;9.88;6.30;;;21.00;65.10;;;;;;5097704;28;20023;-70
2022/09/09 07:23:20;;;;;;;12.75;6.10;;;21.00;64.20;;;;;;5116050;28;20542;-70
2022/09/09 07:25:47;;;;;;;8.98;5.72;;;21.10;63.40;;;;;;5115846;28;20111;-71
2022/09/09 07:28:13;;;;;;;11.77;5.90;;;21.30;64.00;;;;;;5116143;28;20022;-70
2022/09/09 07:30:40;;;;;;;12.55;6.25;;;21.40;64.10;;;;;;5115885;28;20020;-70
2022/09/09 07:33:06;;;;;;;11.18;6.07;;;21.50;63.70;;;;;;5115199;28;20067;-70
2022/09/09 07:35:31;;;;;;;11.75;5.78;;;21.70;63.30;;;;;;5115791;28;20031;-69
2022/09/09 07:37:58;;;;;;;12.80;6.00;;;21.90;63.00;;;;;;5115793;28;20028;-70
2022/09/09 07:40:24;;;;;;;15.60;6.25;;;22.00;63.00;;;;;;5115560;28;20046;-71
2022/09/09 07:42:50;;;;;;;18.90;7.32;;;22.20;63.40;;;;;;5115320;27;20032;-71
2022/09/09 07:45:16;;;;;;;11.13;5.97;;;22.30;62.50;;;;;;5115498;28;20031;-71
2022/09/09 07:47:44;;;;;;;10.55;6.80;;;22.50;61.90;;;;;;5115524;28;20199;-70
2022/09/09 07:50:11;;;;;;;15.07;7.20;;;22.60;61.90;;;;;;5115371;28;20004;-70
2022/09/09 07:52:37;;;;;;;13.35;7.82;;;22.80;61.70;;;;;;5115462;28;20102;-70
2022/09/09 07:55:04;;;;;;;15.50;8.35;;;22.90;60.90;;;;;;5115226;28;20102;-70
2022/09/09 07:57:33;;;;;;;17.15;8.23;;;23.00;59.90;;;;;;5115379;28;20034;-70
2022/09/09 07:59:59;;;;;;;17.30;7.93;;;23.20;59.80;;;;;;5115179;28;20023;-70
2022/09/09 08:02:27;;;;;;;20.40;8.70;;;23.20;59.80;;;;;;5115114;28;20087;-70
2022/09/09 08:04:53;;;;;;;17.67;8.63;;;23.30;59.00;;;;;;5114951;28;20019;-70
2022/09/09 08:07:21;;;;;;;16.90;8.38;;;23.40;58.60;;;;;;5096831;28;20467;-70
2022/09/09 08:09:47;;;;;;;21.75;8.60;;;23.40;58.60;;;;;;5114845;28;20356;-71
2022/09/09 08:12:13;;;;;;;17.48;8.50;;;23.50;58.10;;;;;;5114774;27;20020;-70
2022/09/09 08:14:39;;;;;;;14.95;8.13;;;23.40;57.40;;;;;;5114909;28;20069;-71
2022/09/09 08:17:05;;;;;;;16.23;9.48;;;23.40;57.60;;;;;;5114885;28;20016;-70
2022/09/09 08:19:33;;;;;;;16.70;8.07;;;23.40;57.10;;;;;;5096543;28;20042;-70
2022/09/09 08:22:01;;;;;;;17.63;8.77;;;23.30;57.30;;;;;;5114675;28;20467;-70
2022/09/09 08:24:27;;;;;;;15.18;7.82;;;23.30;57.10;;;;;;5114622;28;20047;-70
2022/09/09 08:26:53;;;;;;;15.40;8.57;;;23.30;57.20;;;;;;5114426;28;20098;-70
2022/09/09 08:29:19;;;;;;;21.83;8.88;;;23.30;57.20;;;;;;5114548;28;20022;-70
2022/09/09 08:31:48;;;;;;;18.95;9.98;;;23.30;57.10;;;;;;5114254;28;20018;-70
2022/09/09 08:34:14;;;;;;;16.88;9.32;;;23.30;57.00;;;;;;5114230;28;20486;-70
2022/09/09 08:36:43;;;;;;;21.00;10.07;;;23.30;57.20;;;;;;5096063;28;20410;-71
2022/09/09 08:39:11;;;;;;;18.45;10.43;;;23.10;56.90;;;;;;5114194;28;20027;-70
2022/09/09 08:41:58;;;;;;;14.95;9.00;;;23.00;56.90;;;;;;5114414;28;20479;-70
2022/09/09 08:44:45;;;;;;;16.98;9.82;;;23.00;57.70;;;;;;5113692;28;20144;-70
2022/09/09 08:47:32;;;;;;;14.43;10.07;;;22.90;57.50;;;;;;5114197;28;20023;-70
2022/09/09 08:50:22;;;;;;;23.15;14.20;;;22.90;57.80;;;;;;5114143;28;20426;-71
2022/09/09 08:53:05;;;;;;;27.23;12.45;;;22.80;57.90;;;;;;5114234;28;20063;-70
2022/09/09 08:55:55;;;;;;;14.90;9.55;;;22.80;57.80;;;;;;5114057;28;20547;-70
2022/09/09 08:58:32;;;;;;;13.95;8.77;;;22.70;57.90;;;;;;5113953;28;20108;-70
2022/09/09 09:01:26;;;;;;;15.40;9.38;;;22.60;58.00;;;;;;5114015;28;20024;-70
2022/09/09 09:04:15;;;;;;;16.60;9.13;;;22.50;57.80;;;;;;5113949;28;20076;-70
2022/09/09 09:06:48;;;;;;;12.20;7.85;;;22.50;57.40;;;;;;5113628;28;20079;-70
2022/09/09 09:09:26;;;;;;;12.63;8.52;;;22.30;57.60;;;;;;5113418;27;20355;-70
2022/09/09 09:11:54;;;;;;;20.80;8.77;;;22.20;57.80;;;;;;5113678;28;20020;-70
2022/09/09 09:14:24;;;;;;;14.98;7.95;;;22.10;58.00;;;;;;5095315;28;20042;-70
2022/09/09 09:17:20;;;;;;;13.82;8.65;;;22.00;58.20;;;;;;5113504;28;20036;-71
2022/09/09 09:19:47;;;;;;;12.93;8.25;;;21.80;58.70;;;;;;5030743;28;20122;-70
2022/09/09 09:22:39;;;;;;;25.77;8.32;;;21.70;59.00;;;;;;5014470;28;20021;-71
2022/09/09 09:25:17;;;;;;;11.20;7.28;;;21.60;59.20;;;;;;5030757;28;20037;-70
2022/09/09 09:28:10;;;;;;;14.60;7.50;;;21.40;59.90;;;;;;5030914;28;20057;-70
2022/09/09 09:30:45;;;;;;;12.32;7.38;;;21.30;60.50;;;;;;5030713;28;20140;-70
2022/09/09 09:33:23;;;;;;;15.57;8.77;;;21.20;61.10;;;;;;5030475;28;20521;-70
2022/09/09 09:35:50;;;;;;;16.88;8.00;;;21.10;61.40;;;;;;5030625;28;20040;-70
2022/09/09 09:38:36;;;;;;;15.18;8.25;;;21.00;61.90;;;;;;5030611;28;20104;-70
2022/09/09 09:41:02;;;;;;;14.10;7.40;;;20.90;63.20;;;;;;5030906;28;20037;-70
2022/09/09 09:43:29;;;;;;;16.23;8.43;;;20.70;63.40;;;;;;5030453;28;20025;-70
2022/09/09 09:45:57;;;;;;;11.68;7.90;;;20.70;64.10;;;;;;5034503;28;20472;-70
2022/09/09 09:48:24;;;;;;;13.23;7.32;;;20.60;64.30;;;;;;5033807;28;20028;-70
2022/09/09 09:51:10;;;;;;;14.07;7.63;;;20.50;64.80;;;;;;5050499;28;20393;-70
2022/09/09 09:53:38;;;;;;;14.23;7.30;;;20.50;65.20;;;;;;5050591;28;20036;-71
2022/09/09 09:56:13;;;;;;;16.17;7.93;;;20.50;65.70;;;;;;5079007;28;20036;-70
2022/09/09 09:58:45;;;;;;;12.20;7.07;;;20.50;65.90;;;;;;5113084;28;20024;-70
2022/09/09 10:01:25;;;;;;;9.77;6.90;;;20.60;66.40;;;;;;5113184;28;20027;-70
2022/09/09 10:03:53;;;;;;;15.65;7.07;;;20.60;66.60;;;;;;5112876;28;20076;-70
2022/09/09 10:06:36;;;;;;;11.88;7.30;;;20.60;67.00;;;;;;5112768;28;20076;-70
2022/09/09 10:09:07;;;;;;;14.43;7.40;;;20.70;67.20;;;;;;5111278;28;20019;-70
2022/09/09 10:11:50;;;;;;;13.57;7.80;;;20.70;66.90;;;;;;5092512;28;20019;-70
2022/09/09 10:14:20;;;;;;;14.88;8.23;;;20.80;66.50;;;;;;5092546;28;20027;-70
2022/09/09 10:16:49;;;;;;;14.98;7.93;;;20.80;66.30;;;;;;5092480;28;20051;-70
2022/09/09 10:19:29;;;;;;;14.30;7.63;;;20.90;66.70;;;;;;5092335;28;20095;-70
2022/09/09 10:22:30;;;;;;;13.90;7.68;;;21.00;67.80;;;;;;5092440;28;20031;-70
2022/09/09 10:25:07;;;;;;;12.25;7.50;;;21.10;67.40;;;;;;5092330;28;20478;-70
2022/09/09 10:27:39;;;;;;;13.05;7.78;;;21.30;66.60;;;;;;5092443;28;20047;-70
2022/09/09 10:30:26;;;;;;;10.88;7.40;;;21.40;66.00;;;;;;5092310;28;20023;-70
2022/09/09 10:33:01;;;;;;;13.20;7.05;;;21.50;65.50;;;;;;5103445;28;20048;-70
2022/09/09 10:35:36;;;;;;;16.25;7.22;;;21.60;65.50;;;;;;5112712;28;20497;-70
2022/09/09 10:38:13;;;;;;;8.18;5.90;;;21.70;64.80;;;;;;5112548;28;20028;-70
2022/09/09 10:40:55;;;;;;;10.70;5.60;;;21.80;65.00;;;;;;5112524;28;20027;-70
2022/09/09 10:43:23;;;;;;;9.98;6.25;;;21.90;65.30;;;;;;5112544;28;20030;-70
2022/09/09 10:45:58;;;;;;;9.18;5.63;;;22.10;65.30;;;;;;5093965;28;20428;-70
2022/09/09 10:48:57;;;;;;;14.45;6.75;;;22.20;65.10;;;;;;5112537;28;20024;-70
2022/09/09 10:51:47;;;;;;;10.05;6.20;;;22.40;64.80;;;;;;5112400;28;20019;-70
2022/09/09 10:54:39;;;;;;;5.97;4.45;;;22.60;64.10;;;;;;5112421;28;20027;-70
2022/09/09 10:57:26;;;;;;;5.90;3.92;;;22.80;63.40;;;;;;5112469;28;20118;-70
2022/09/09 10:59:56;;;;;;;7.47;3.88;;;22.90;62.50;;;;;;5094042;28;20027;-70
2022/09/09 11:02:30;;;;;;;6.68;4.00;;;23.10;62.50;;;;;;5112361;28;20028;-70
2022/09/09 11:05:02;;;;;;;8.02;3.70;;;23.20;61.80;;;;;;5112343;28;20069;-70
2022/09/09 11:07:38;;;;;;;7.40;4.75;;;23.30;61.80;;;;;;5095986;28;20027;-70
2022/09/09 11:10:16;;;;;;;7.28;5.03;;;23.40;60.50;;;;;;5116054;28;20027;-70
2022/09/09 11:12:45;;;;;;;11.10;7.43;;;23.50;60.20;;;;;;5116174;28;20098;-70
2022/09/09 11:15:42;;;;;;;10.40;7.82;;;23.50;59.40;;;;;;5116115;28;20034;-70
2022/09/09 11:18:22;;;;;;;13.00;7.85;;;23.50;59.00;;;;;;5109910;28;20128;-70
2022/09/09 11:20:56;;;;;;;14.32;8.15;;;23.40;58.50;;;;;;5116035;28;20023;-70
2022/09/09 11:23:56;;;;;;;11.30;6.63;;;23.30;58.00;;;;;;5116295;28;20039;-70
2022/09/09 11:26:54;;;;;;;10.48;7.10;;;23.20;58.60;;;;;;5033043;28;20055;-70
2022/09/09 11:29:34;;;;;;;10.93;6.43;;;23.10;58.50;;;;;;5029253;28;20112;-70
2022/09/09 11:32:18;;;;;;;10.43;6.63;;;23.00;58.70;;;;;;5016114;28;20145;-70
2022/09/09 11:35:08;;;;;;;10.40;6.50;;;23.00;59.20;;;;;;5032975;28;20485;-70
2022/09/09 11:37:39;;;;;;;8.18;5.97;;;23.00;59.40;;;;;;5032907;28;20022;-70
2022/09/09 11:40:19;;;;;;;10.77;6.25;;;23.00;59.10;;;;;;5033055;28;20551;-70
2022/09/09 11:42:49;;;;;;;11.23;6.47;;;23.00;59.60;;;;;;5033849;28;20037;-70
2022/09/09 11:45:28;;;;;;;13.98;6.63;;;23.00;59.20;;;;;;5052661;28;20049;-71
2022/09/09 11:47:59;;;;;;;9.77;6.03;;;23.00;59.10;;;;;;5035666;28;20021;-70
2022/09/09 11:50:24;;;;;;;9.07;5.88;;;23.00;59.10;;;;;;5052389;28;20044;-71
2022/09/09 11:52:51;;;;;;;9.55;6.93;;;23.00;59.00;;;;;;5052383;28;20017;-70
2022/09/09 11:55:32;;;;;;;12.07;6.80;;;23.10;58.80;;;;;;5052390;28;20799;-70
2022/09/09 11:58:15;;;;;;;8.02;6.03;;;23.10;58.70;;;;;;5052469;28;20036;-70
2022/09/09 12:00:46;;;;;;;13.95;7.30;;;23.20;58.70;;;;;;5052499;28;20384;-71
2022/09/09 12:03:41;;;;;;;9.77;6.85;;;23.30;58.50;;;;;;5135705;27;20474;-71
2022/09/09 12:06:20;;;;;;;13.57;8.45;;;23.40;58.30;;;;;;5135713;27;20019;-71
2022/09/09 12:08:52;;;;;;;13.35;8.05;;;23.50;57.30;;;;;;5116998;27;20028;-71
2022/09/09 12:11:30;;;;;;;10.90;7.93;;;23.50;56.80;;;;;;5134767;27;20019;-70
2022/09/09 12:14:00;;;;;;;9.60;6.57;;;23.40;56.70;;;;;;5135481;27;20015;-71
2022/09/09 12:16:34;;;;;;;8.95;6.03;;;23.40;56.60;;;;;;5135549;27;20063;-70
2022/09/09 12:19:21;;;;;;;11.48;6.53;;;23.40;57.20;;;;;;5134435;27;20027;-71
2022/09/09 12:21:51;;;;;;;8.95;5.75;;;23.40;57.60;;;;;;5117027;27;20031;-71
2022/09/09 12:24:28;;;;;;;8.68;5.28;;;23.50;57.30;;;;;;5135451;27;20104;-71
2022/09/09 12:27:26;;;;;;;10.73;5.18;;;23.60;57.20;;;;;;5135288;27;20015;-70
2022/09/09 12:29:58;;;;;;;8.80;5.70;;;23.60;57.00;;;;;;5116659;27;20043;-71
2022/09/09 12:32:25;;;;;;;9.02;5.38;;;23.60;56.70;;;;;;5134751;27;20042;-71
2022/09/09 12:35:07;;;;;;;10.80;5.70;;;23.60;56.60;;;;;;5134978;27;20019;-71
2022/09/09 12:37:37;;;;;;;7.10;4.72;;;23.60;56.00;;;;;;5135133;27;20012;-71
2022/09/09 12:40:18;;;;;;;8.05;5.57;;;23.50;56.40;;;;;;5124093;27;20031;-71
2022/09/09 12:42:44;;;;;;;9.23;5.80;;;23.50;56.50;;;;;;5114207;28;20020;-71
2022/09/09 12:45:25;;;;;;;9.02;5.75;;;23.60;57.30;;;;;;5114087;28;20080;-71
2022/09/09 12:47:55;;;;;;;8.48;5.47;;;23.60;55.90;;;;;;5114002;28;20012;-70
2022/09/09 12:50:22;;;;;;;7.80;5.35;;;23.60;56.20;;;;;;5114015;28;20110;-71
2022/09/09 12:52:51;;;;;;;7.70;5.53;;;23.60;56.50;;;;;;5114269;28;20031;-71
2022/09/09 12:55:24;;;;;;;8.13;6.20;;;23.70;56.80;;;;;;5114057;28;20031;-71
2022/09/09 12:57:51;;;;;;;9.00;6.10;;;23.80;56.70;;;;;;5114197;28;20081;-71
2022/09/09 13:00:22;;;;;;;7.38;5.32;;;23.90;56.30;;;;;;5095793;28;20478;-71
2022/09/09 13:02:57;;;;;;;8.48;6.03;;;24.00;57.20;;;;;;5114020;28;20055;-71
2022/09/09 13:05:29;;;;;;;8.23;5.82;;;24.00;56.20;;;;;;5113625;28;20136;-71
2022/09/09 13:08:08;;;;;;;9.23;5.75;;;24.10;56.30;;;;;;5113731;28;20050;-71
2022/09/09 13:10:56;;;;;;;9.27;6.05;;;24.20;55.60;;;;;;5095487;28;20016;-71